createdAt,value
2018-11-14T00:01:01.093Z,0
2018-11-14T00:02:10.776Z,0
2018-11-14T00:03:20.216Z,0
2018-11-14T00:04:29.665Z,0
2018-11-14T00:05:39.625Z,0
2018-11-14T00:06:49.310Z,0
2018-11-14T00:07:59.006Z,0
2018-11-14T00:09:08.943Z,0
2018-11-14T00:10:19.087Z,0
2018-11-14T00:11:29.243Z,0
2018-11-14T00:12:38.927Z,0
2018-11-14T00:13:48.621Z,0
2018-11-14T00:14:58.304Z,0
2018-11-14T00:16:08.007Z,0
2018-11-14T00:17:17.437Z,0
2018-11-14T00:18:27.120Z,0
2018-11-14T00:19:37.247Z,0
2018-11-14T00:20:46.938Z,0
2018-11-14T00:21:56.372Z,0
2018-11-14T00:23:06.321Z,0
2018-11-14T00:24:16.269Z,0
2018-11-14T00:25:26.018Z,0
2018-11-14T00:26:35.705Z,0
2018-11-14T00:27:45.836Z,0
2018-11-14T00:28:56.064Z,0
2018-11-14T00:30:05.330Z,0
2018-11-14T00:31:15.272Z,0
2018-11-14T00:32:24.959Z,0
2018-11-14T00:33:34.659Z,0
2018-11-14T00:34:44.909Z,0
2018-11-14T00:35:55.216Z,0
2018-11-14T00:37:05.144Z,0
2018-11-14T00:38:14.849Z,0
2018-11-14T00:39:24.537Z,0
2018-11-14T00:40:34.231Z,0
2018-11-14T00:41:43.962Z,0
2018-11-14T00:42:53.943Z,0
2018-11-14T00:44:03.897Z,0
2018-11-14T00:45:13.849Z,0
2018-11-14T00:46:23.548Z,0
2018-11-14T00:47:33.511Z,0
2018-11-14T00:48:43.457Z,0
2018-11-14T00:49:53.411Z,0
2018-11-14T00:51:03.090Z,0
2018-11-14T00:52:12.797Z,0
2018-11-14T00:53:22.747Z,0
2018-11-14T00:54:32.173Z,0
2018-11-14T00:55:41.879Z,0
2018-11-14T00:56:51.828Z,0
2018-11-14T00:58:01.791Z,0
2018-11-14T00:59:11.483Z,0
2018-11-14T01:00:21.165Z,0
2018-11-14T01:01:31.532Z,0
2018-11-14T01:02:42.161Z,0
2018-11-14T01:03:51.595Z,0
2018-11-14T01:05:01.296Z,0
2018-11-14T01:06:10.724Z,0
2018-11-14T01:07:20.416Z,0
2018-11-14T01:08:29.606Z,0
2018-11-14T01:09:39.557Z,0
2018-11-14T01:10:49.251Z,0
2018-11-14T01:11:58.953Z,0
2018-11-14T01:13:08.864Z,0
2018-11-14T01:14:17.971Z,0
2018-11-14T01:15:27.139Z,0
2018-11-14T01:16:36.566Z,0
2018-11-14T01:17:46.001Z,0
2018-11-14T01:18:55.686Z,0
2018-11-14T01:20:05.372Z,0
2018-11-14T01:21:14.548Z,0
2018-11-14T01:22:23.978Z,0
2018-11-14T01:23:33.697Z,0
2018-11-14T01:24:43.407Z,0
2018-11-14T01:25:53.103Z,0
2018-11-14T01:27:02.709Z,0
2018-11-14T01:28:12.240Z,0
2018-11-14T01:29:22.195Z,0
2018-11-14T01:30:32.146Z,0
2018-11-14T01:31:41.847Z,0
2018-11-14T01:32:51.302Z,0
2018-11-14T01:34:01.150Z,0
2018-11-14T01:35:11.154Z,0
2018-11-14T01:36:20.587Z,0
2018-11-14T01:37:30.287Z,0
2018-11-14T01:38:40.235Z,0
2018-11-14T01:39:49.914Z,0
2018-11-14T01:40:59.933Z,0
2018-11-14T01:42:09.114Z,0
2018-11-14T01:43:19.071Z,0
2018-11-14T01:44:28.490Z,0
2018-11-14T01:45:38.187Z,0
2018-11-14T01:46:48.145Z,0
2018-11-14T01:47:57.834Z,0
2018-11-14T01:49:07.268Z,0
2018-11-14T01:50:16.693Z,0
2018-11-14T01:51:26.410Z,0
2018-11-14T01:52:36.098Z,0
2018-11-14T01:53:45.525Z,0
2018-11-14T01:54:55.285Z,0
2018-11-14T01:56:05.282Z,0
2018-11-14T01:57:14.705Z,0
2018-11-14T01:58:24.378Z,0
2018-11-14T01:59:34.326Z,0
2018-11-14T02:00:44.299Z,0
2018-11-14T02:01:53.985Z,0
2018-11-14T02:03:04.160Z,0
2018-11-14T02:04:13.897Z,0
2018-11-14T02:05:23.401Z,0
2018-11-14T02:06:32.822Z,0
2018-11-14T02:07:42.763Z,0
2018-11-14T02:08:52.454Z,0
2018-11-14T02:10:02.159Z,0
2018-11-14T02:11:11.576Z,0
2018-11-14T02:12:21.276Z,0
2018-11-14T02:13:30.709Z,0
2018-11-14T02:14:40.391Z,0
2018-11-14T02:15:50.338Z,0
2018-11-14T02:17:00.286Z,0
2018-11-14T02:18:09.979Z,0
2018-11-14T02:19:19.918Z,0
2018-11-14T02:20:29.870Z,0
2018-11-14T02:21:39.296Z,0
2018-11-14T02:22:48.969Z,0
2018-11-14T02:23:58.675Z,0
2018-11-14T02:25:08.661Z,0
2018-11-14T02:26:18.362Z,0
2018-11-14T02:27:27.532Z,0
2018-11-14T02:28:37.465Z,0
2018-11-14T02:29:47.142Z,0
2018-11-14T02:30:57.098Z,0
2018-11-14T02:32:06.278Z,0
2018-11-14T02:33:16.211Z,0
2018-11-14T02:34:25.886Z,0
2018-11-14T02:35:35.605Z,0
2018-11-14T02:36:45.574Z,0
2018-11-14T02:37:55.576Z,0
2018-11-14T02:39:05.017Z,0
2018-11-14T02:40:15.019Z,0
2018-11-14T02:41:24.714Z,0
2018-11-14T02:42:34.408Z,0
2018-11-14T02:43:44.362Z,0
2018-11-14T02:44:53.798Z,0
2018-11-14T02:46:03.494Z,0
2018-11-14T02:47:12.917Z,0
2018-11-14T02:48:22.344Z,0
2018-11-14T02:49:32.308Z,0
2018-11-14T02:50:42.289Z,0
2018-11-14T02:51:51.970Z,0
2018-11-14T02:53:01.672Z,0
2018-11-14T02:54:11.649Z,0
2018-11-14T02:55:21.598Z,0
2018-11-14T02:56:31.275Z,0
2018-11-14T02:57:40.967Z,0
2018-11-14T02:58:50.396Z,0
2018-11-14T03:00:00.329Z,0
2018-11-14T03:01:10.034Z,0
2018-11-14T03:02:19.986Z,0
2018-11-14T03:03:29.676Z,0
2018-11-14T03:04:39.361Z,0
2018-11-14T03:05:49.047Z,0
2018-11-14T03:06:58.728Z,0
2018-11-14T03:08:08.430Z,0
2018-11-14T03:09:18.123Z,0
2018-11-14T03:10:27.623Z,0
2018-11-14T03:11:37.563Z,0
2018-11-14T03:12:47.278Z,0
2018-11-14T03:13:57.220Z,0
2018-11-14T03:15:06.907Z,0
2018-11-14T03:16:16.847Z,0
2018-11-14T03:17:26.777Z,0
2018-11-14T03:18:36.741Z,0
2018-11-14T03:19:46.162Z,0
2018-11-14T03:20:56.109Z,0
2018-11-14T03:22:06.076Z,0
2018-11-14T03:23:15.788Z,0
2018-11-14T03:24:25.471Z,0
2018-11-14T03:25:35.156Z,0
2018-11-14T03:26:44.851Z,0
2018-11-14T03:27:54.534Z,0
2018-11-14T03:29:04.487Z,0
2018-11-14T03:30:13.971Z,0
2018-11-14T03:31:23.966Z,0
2018-11-14T03:32:33.660Z,0
2018-11-14T03:33:42.568Z,0
2018-11-14T03:34:52.006Z,0
2018-11-14T03:36:01.722Z,0
2018-11-14T03:37:11.146Z,0
2018-11-14T03:38:20.827Z,0
2018-11-14T03:39:30.520Z,0
2018-11-14T03:40:40.479Z,0
2018-11-14T03:41:50.172Z,0
2018-11-14T03:42:59.870Z,0
2018-11-14T03:44:09.043Z,0
2018-11-14T03:45:19.024Z,0
2018-11-14T03:46:28.716Z,0
2018-11-14T03:47:37.882Z,0
2018-11-14T03:48:47.623Z,0
2018-11-14T03:49:57.038Z,0
2018-11-14T03:51:06.728Z,0
2018-11-14T03:52:16.680Z,0
2018-11-14T03:53:26.635Z,0
2018-11-14T03:54:36.332Z,0
2018-11-14T03:55:45.767Z,0
2018-11-14T03:56:55.207Z,0
2018-11-14T03:58:04.866Z,0
2018-11-14T03:59:14.678Z,0
2018-11-14T04:00:24.427Z,0
2018-11-14T04:01:33.854Z,0
2018-11-14T04:02:43.293Z,0
2018-11-14T04:03:52.975Z,0
2018-11-14T04:05:02.674Z,0
2018-11-14T04:06:12.118Z,0
2018-11-14T04:07:21.602Z,0
2018-11-14T04:08:31.553Z,0
2018-11-14T04:09:41.490Z,0
2018-11-14T04:10:50.926Z,0
2018-11-14T04:12:00.872Z,0
2018-11-14T04:13:10.573Z,0
2018-11-14T04:14:20.517Z,0
2018-11-14T04:15:30.469Z,0
2018-11-14T04:16:39.904Z,0
2018-11-14T04:17:49.620Z,0
2018-11-14T04:18:59.310Z,0
2018-11-14T04:20:08.742Z,0
2018-11-14T04:21:18.668Z,0
2018-11-14T04:22:28.601Z,0
2018-11-14T04:23:38.306Z,0
2018-11-14T04:24:47.500Z,0
2018-11-14T04:25:57.516Z,0
2018-11-14T04:27:07.208Z,0
2018-11-14T04:28:16.902Z,0
2018-11-14T04:29:26.324Z,0
2018-11-14T04:30:36.276Z,0
2018-11-14T04:31:45.968Z,0
2018-11-14T04:32:55.919Z,0
2018-11-14T04:34:05.854Z,0
2018-11-14T04:35:15.288Z,0
2018-11-14T04:36:24.996Z,0
2018-11-14T04:37:34.682Z,0
2018-11-14T04:38:44.622Z,0
2018-11-14T04:39:54.303Z,0
2018-11-14T04:41:04.271Z,0
2018-11-14T04:42:14.234Z,0
2018-11-14T04:43:24.197Z,0
2018-11-14T04:44:33.903Z,0
2018-11-14T04:45:43.729Z,0
2018-11-14T04:46:53.423Z,0
2018-11-14T04:48:03.602Z,0
2018-11-14T04:49:13.388Z,0
2018-11-14T04:50:23.789Z,0
2018-11-14T04:51:33.727Z,0
2018-11-14T04:52:42.894Z,0
2018-11-14T04:53:52.599Z,0
2018-11-14T04:55:02.587Z,0
2018-11-14T04:56:12.521Z,0
2018-11-14T04:57:22.194Z,0
2018-11-14T04:58:31.877Z,0
2018-11-14T04:59:41.583Z,0
2018-11-14T05:00:51.276Z,0
2018-11-14T05:02:00.445Z,0
2018-11-14T05:03:10.147Z,0
2018-11-14T05:04:19.571Z,0
2018-11-14T05:05:28.811Z,0
2018-11-14T05:06:38.501Z,0
2018-11-14T05:07:48.186Z,0
2018-11-14T05:08:57.632Z,0
2018-11-14T05:10:06.809Z,0
2018-11-14T05:11:16.765Z,0
2018-11-14T05:12:26.457Z,0
2018-11-14T05:13:36.625Z,0
2018-11-14T05:14:46.625Z,0
2018-11-14T05:15:56.599Z,0
2018-11-14T05:17:06.558Z,0
2018-11-14T05:18:16.249Z,0
2018-11-14T05:19:25.960Z,0
2018-11-14T05:20:35.406Z,0
2018-11-14T05:21:45.091Z,0
2018-11-14T05:22:55.039Z,0
2018-11-14T05:24:04.736Z,0
2018-11-14T05:25:14.443Z,0
2018-11-14T05:26:24.407Z,0
2018-11-14T05:27:34.085Z,0
2018-11-14T05:28:43.774Z,0
2018-11-14T05:29:53.213Z,0
2018-11-14T05:31:02.908Z,0
2018-11-14T05:32:12.846Z,0
2018-11-14T05:33:22.282Z,0
2018-11-14T05:34:31.706Z,0
2018-11-14T05:35:41.389Z,0
2018-11-14T05:36:50.586Z,0
2018-11-14T05:38:00.268Z,0
2018-11-14T05:39:10.210Z,0
2018-11-14T05:40:20.880Z,0
2018-11-14T05:41:29.877Z,0
2018-11-14T05:42:39.562Z,0
2018-11-14T05:43:49.247Z,0
2018-11-14T05:44:59.208Z,0
2018-11-14T05:46:08.904Z,4
2018-11-14T05:47:18.602Z,0
2018-11-14T05:48:28.290Z,0
2018-11-14T05:49:37.977Z,4
2018-11-14T05:50:47.678Z,4
2018-11-14T05:51:57.371Z,4
2018-11-14T05:53:07.063Z,4
2018-11-14T05:54:16.750Z,8
2018-11-14T05:55:26.464Z,8
2018-11-14T05:56:36.418Z,12
2018-11-14T05:57:46.133Z,12
2018-11-14T05:58:55.588Z,16
2018-11-14T06:00:05.531Z,16
2018-11-14T06:01:14.436Z,24
2018-11-14T06:02:24.137Z,24
2018-11-14T06:03:34.090Z,32
2018-11-14T06:04:43.533Z,40
2018-11-14T06:05:53.501Z,48
2018-11-14T06:07:03.987Z,56
2018-11-14T06:08:14.043Z,68
2018-11-14T06:09:24.030Z,80
2018-11-14T06:10:33.985Z,96
2018-11-14T06:11:43.426Z,112
2018-11-14T06:12:53.367Z,132
2018-11-14T06:14:02.798Z,152
2018-11-14T06:15:12.358Z,180
2018-11-14T06:16:21.534Z,208
2018-11-14T06:17:31.244Z,240
2018-11-14T06:18:41.218Z,276
2018-11-14T06:19:50.907Z,312
2018-11-14T06:21:00.616Z,364
2018-11-14T06:22:11.022Z,412
2018-11-14T06:23:20.975Z,464
2018-11-14T06:24:30.679Z,512
2018-11-14T06:25:40.432Z,568
2018-11-14T06:26:50.387Z,616
2018-11-14T06:28:00.078Z,668
2018-11-14T06:29:10.016Z,724
2018-11-14T06:30:19.231Z,780
2018-11-14T06:31:28.934Z,844
2018-11-14T06:32:38.386Z,908
2018-11-14T06:33:48.325Z,984
2018-11-14T06:34:58.275Z,1064
2018-11-14T06:36:08.227Z,1156
2018-11-14T06:37:17.658Z,1244
2018-11-14T06:38:27.329Z,1336
2018-11-14T06:39:36.747Z,1428
2018-11-14T06:40:46.693Z,1516
2018-11-14T06:41:56.892Z,1604
2018-11-14T06:43:06.847Z,1696
2018-11-14T06:44:16.551Z,1784
2018-11-14T06:45:26.012Z,1880
2018-11-14T06:46:35.705Z,1984
2018-11-14T06:47:45.392Z,2096
2018-11-14T06:48:55.084Z,2216
2018-11-14T06:50:05.159Z,2344
2018-11-14T06:51:15.224Z,2476
2018-11-14T06:52:25.178Z,2596
2018-11-14T06:53:34.632Z,2720
2018-11-14T06:54:44.318Z,2844
2018-11-14T06:55:54.277Z,2960
2018-11-14T06:57:03.708Z,3068
2018-11-14T06:58:13.670Z,3172
2018-11-14T06:59:23.903Z,3276
2018-11-14T07:00:34.056Z,3384
2018-11-14T07:01:44.033Z,3500
2018-11-14T07:02:53.482Z,3612
2018-11-14T07:04:02.684Z,3720
2018-11-14T07:05:13.760Z,3816
2018-11-14T07:06:24.060Z,3852
2018-11-14T07:07:33.767Z,3900
2018-11-14T07:08:43.755Z,4008
2018-11-14T07:09:53.782Z,4300
2018-11-14T07:11:03.404Z,4548
2018-11-14T07:12:13.243Z,4724
2018-11-14T07:13:22.716Z,4884
2018-11-14T07:14:32.421Z,5040
2018-11-14T07:15:42.373Z,5276
2018-11-14T07:16:52.059Z,5480
2018-11-14T07:18:02.105Z,5684
2018-11-14T07:19:12.046Z,5872
2018-11-14T07:20:22.010Z,6016
2018-11-14T07:21:31.463Z,6108
2018-11-14T07:22:41.167Z,6188
2018-11-14T07:23:51.244Z,6268
2018-11-14T07:25:01.131Z,6336
2018-11-14T07:26:10.849Z,6464
2018-11-14T07:27:20.590Z,6600
2018-11-14T07:28:30.565Z,6684
2018-11-14T07:29:40.268Z,6764
2018-11-14T07:30:49.967Z,6956
2018-11-14T07:32:00.104Z,7088
2018-11-14T07:33:09.336Z,7228
2018-11-14T07:34:18.802Z,7588
2018-11-14T07:35:28.250Z,8136
2018-11-14T07:36:37.952Z,8400
2018-11-14T07:37:47.906Z,8648
2018-11-14T07:38:58.249Z,8972
2018-11-14T07:40:07.953Z,9136
2018-11-14T07:41:17.655Z,9184
2018-11-14T07:42:27.333Z,9320
2018-11-14T07:43:37.042Z,9440
2018-11-14T07:44:46.267Z,9428
2018-11-14T07:45:55.969Z,9520
2018-11-14T07:47:06.137Z,9624
2018-11-14T07:48:16.077Z,9768
2018-11-14T07:49:25.783Z,9804
2018-11-14T07:50:35.761Z,10124
2018-11-14T07:51:45.475Z,10400
2018-11-14T07:52:55.443Z,10532
2018-11-14T07:54:04.880Z,10604
2018-11-14T07:55:14.578Z,10348
2018-11-14T07:56:24.567Z,10384
2018-11-14T07:57:34.266Z,10300
2018-11-14T07:58:44.275Z,10412
2018-11-14T07:59:53.737Z,10184
2018-11-14T08:01:03.727Z,10548
2018-11-14T08:02:14.156Z,10680
2018-11-14T08:03:23.990Z,10984
2018-11-14T08:04:33.951Z,11372
2018-11-14T08:05:43.900Z,11312
2018-11-14T08:06:53.885Z,12008
2018-11-14T08:08:04.088Z,11756
2018-11-14T08:09:14.119Z,10468
2018-11-14T08:10:24.100Z,11388
2018-11-14T08:11:34.174Z,12836
2018-11-14T08:12:44.139Z,13424
2018-11-14T08:13:53.867Z,13956
2018-11-14T08:15:03.585Z,13920
2018-11-14T08:16:13.299Z,14432
2018-11-14T08:17:23.251Z,15008
2018-11-14T08:18:32.952Z,14776
2018-11-14T08:19:42.985Z,16416
2018-11-14T08:20:52.423Z,16096
2018-11-14T08:22:02.128Z,17472
2018-11-14T08:23:11.045Z,18112
2018-11-14T08:24:20.753Z,19744
2018-11-14T08:25:30.452Z,19520
2018-11-14T08:26:40.442Z,21120
2018-11-14T08:27:50.412Z,21152
2018-11-14T08:29:00.377Z,21312
2018-11-14T08:30:10.338Z,21792
2018-11-14T08:31:20.297Z,22496
2018-11-14T08:32:30.266Z,22816
2018-11-14T08:33:39.987Z,23072
2018-11-14T08:34:49.441Z,23744
2018-11-14T08:35:59.159Z,24384
2018-11-14T08:37:09.574Z,24416
2018-11-14T08:38:19.536Z,24416
2018-11-14T08:39:29.806Z,24832
2018-11-14T08:40:39.544Z,18688
2018-11-14T08:41:49.312Z,12952
2018-11-14T08:42:59.004Z,12572
2018-11-14T08:44:08.982Z,13096
2018-11-14T08:45:18.427Z,26336
2018-11-14T08:46:28.413Z,29344
2018-11-14T08:47:38.166Z,29920
2018-11-14T08:48:47.872Z,29952
2018-11-14T08:49:57.575Z,29472
2018-11-14T08:51:07.535Z,30304
2018-11-14T08:52:17.010Z,31840
2018-11-14T08:53:26.212Z,28352
2018-11-14T08:54:35.916Z,29600
2018-11-14T08:55:45.889Z,20032
2018-11-14T08:56:55.883Z,10496
2018-11-14T08:58:05.942Z,14836
2018-11-14T08:59:15.667Z,31680
2018-11-14T09:00:25.442Z,34816
2018-11-14T09:01:35.151Z,32800
2018-11-14T09:02:45.135Z,21216
2018-11-14T09:03:54.994Z,22016
2018-11-14T09:05:05.124Z,31808
2018-11-14T09:06:14.695Z,37792
2018-11-14T09:07:24.316Z,38336
2018-11-14T09:08:33.775Z,34784
2018-11-14T09:09:43.205Z,32288
2018-11-14T09:10:53.024Z,42336
2018-11-14T09:12:02.800Z,42944
2018-11-14T09:13:13.526Z,41568
2018-11-14T09:14:23.791Z,41184
2018-11-14T09:15:33.577Z,40640
2018-11-14T09:16:43.256Z,43072
2018-11-14T09:17:52.749Z,44992
2018-11-14T09:19:02.715Z,43392
2018-11-14T09:20:12.422Z,43616
2018-11-14T09:21:22.133Z,45728
2018-11-14T09:22:31.571Z,41440
2018-11-14T09:23:41.347Z,44992
2018-11-14T09:24:50.943Z,35424
2018-11-14T09:26:00.711Z,39328
2018-11-14T09:27:10.471Z,38880
2018-11-14T09:28:20.196Z,36064
2018-11-14T09:29:30.153Z,32320
2018-11-14T09:30:39.619Z,42880
2018-11-14T09:31:49.632Z,38816
2018-11-14T09:32:59.855Z,41920
2018-11-14T09:34:09.589Z,36800
2018-11-14T09:35:19.095Z,38048
2018-11-14T09:36:28.599Z,37568
2018-11-14T09:37:38.302Z,39648
2018-11-14T09:38:47.748Z,41248
2018-11-14T09:39:57.461Z,41216
2018-11-14T09:41:07.181Z,40352
2018-11-14T09:42:17.002Z,38016
2018-11-14T09:43:26.974Z,43104
2018-11-14T09:44:37.258Z,42240
2018-11-14T09:45:47.157Z,39296
2018-11-14T09:46:56.867Z,35584
2018-11-14T09:48:06.567Z,29312
2018-11-14T09:49:16.542Z,39456
2018-11-14T09:50:26.321Z,41056
2018-11-14T09:51:35.773Z,36960
2018-11-14T09:52:45.539Z,35072
2018-11-14T09:53:55.248Z,47456
2018-11-14T09:55:05.226Z,39968
2018-11-14T09:56:14.951Z,43264
2018-11-14T09:57:24.422Z,46784
2018-11-14T09:58:34.136Z,52320
2018-11-14T09:59:43.874Z,46656
2018-11-14T10:00:53.769Z,42304
2018-11-14T10:02:03.227Z,50272
2018-11-14T10:03:12.940Z,49728
2018-11-14T10:04:22.657Z,56864
2018-11-14T10:05:32.199Z,55744
2018-11-14T10:06:42.009Z,46144
2018-11-14T10:07:51.712Z,46176
2018-11-14T10:09:02.018Z,48000
2018-11-14T10:10:11.717Z,59648
2018-11-14T10:11:21.183Z,54880
2018-11-14T10:12:30.720Z,56096
2018-11-14T10:13:40.823Z,42240
2018-11-14T10:14:50.271Z,57920
2018-11-14T10:16:00.425Z,67136
2018-11-14T10:17:10.404Z,48960
2018-11-14T10:18:20.131Z,49120
2018-11-14T10:19:30.167Z,47776
2018-11-14T10:20:40.158Z,26624
2018-11-14T10:21:49.668Z,36992
2018-11-14T10:22:59.374Z,20928
2018-11-14T10:24:09.081Z,25824
2018-11-14T10:25:18.785Z,27680
2018-11-14T10:26:28.236Z,24032
2018-11-14T10:27:37.686Z,51840
2018-11-14T10:28:47.386Z,46400
2018-11-14T10:29:57.127Z,54048
2018-11-14T10:31:07.046Z,31104
2018-11-14T10:32:16.742Z,50240
2018-11-14T10:33:26.217Z,37536
2018-11-14T10:34:35.919Z,42336
2018-11-14T10:35:45.947Z,23872
2018-11-14T10:36:55.933Z,29184
2018-11-14T10:38:05.324Z,27712
2018-11-14T10:39:15.148Z,30272
2018-11-14T10:40:24.623Z,50880
2018-11-14T10:41:34.311Z,31968
2018-11-14T10:42:44.096Z,49344
2018-11-14T10:43:53.650Z,42560
2018-11-14T10:45:03.611Z,48768
2018-11-14T10:46:13.107Z,61216
2018-11-14T10:47:23.059Z,64832
2018-11-14T10:48:33.010Z,66912
2018-11-14T10:49:42.700Z,35200
2018-11-14T10:50:52.248Z,41184
2018-11-14T10:52:02.006Z,36256
2018-11-14T10:53:10.958Z,63296
2018-11-14T10:54:20.440Z,35488
2018-11-14T10:55:30.144Z,48224
2018-11-14T10:56:39.586Z,65952
2018-11-14T10:57:49.068Z,40608
2018-11-14T10:58:58.276Z,67808
2018-11-14T11:00:07.725Z,41216
2018-11-14T11:01:17.430Z,65472
2018-11-14T11:02:27.149Z,72288
2018-11-14T11:03:36.857Z,65024
2018-11-14T11:04:46.568Z,71904
2018-11-14T11:05:56.536Z,65184
2018-11-14T11:07:06.252Z,34944
2018-11-14T11:08:17.004Z,72064
2018-11-14T11:09:27.006Z,29824
2018-11-14T11:10:36.449Z,38176
2018-11-14T11:11:45.643Z,38560
2018-11-14T11:12:55.115Z,25696
2018-11-14T11:14:04.864Z,25120
2018-11-14T11:15:14.343Z,21120
2018-11-14T11:16:24.084Z,23360
2018-11-14T11:17:33.521Z,22688
2018-11-14T11:18:43.588Z,21408
2018-11-14T11:19:53.331Z,22592
2018-11-14T11:21:02.850Z,22976
2018-11-14T11:22:12.583Z,20800
2018-11-14T11:23:22.601Z,17888
2018-11-14T11:24:32.418Z,16052
2018-11-14T11:25:41.873Z,19008
2018-11-14T11:26:51.599Z,15188
2018-11-14T11:28:01.334Z,15640
2018-11-14T11:29:11.030Z,14720
2018-11-14T11:30:20.737Z,15412
2018-11-14T11:31:30.188Z,18784
2018-11-14T11:32:39.668Z,23104
2018-11-14T11:33:49.383Z,21664
2018-11-14T11:34:59.083Z,24192
2018-11-14T11:36:08.556Z,27456
2018-11-14T11:37:18.258Z,25056
2018-11-14T11:38:28.385Z,28800
2018-11-14T11:39:38.314Z,31776
2018-11-14T11:40:47.675Z,26880
2018-11-14T11:41:57.185Z,24320
2018-11-14T11:43:06.671Z,26080
2018-11-14T11:44:15.980Z,41312
2018-11-14T11:45:25.806Z,66400
2018-11-14T11:46:35.516Z,65824
2018-11-14T11:47:45.474Z,57184
2018-11-14T11:48:55.427Z,33088
2018-11-14T11:50:05.126Z,45696
2018-11-14T11:51:15.155Z,69728
2018-11-14T11:52:24.602Z,41024
2018-11-14T11:53:34.272Z,44192
2018-11-14T11:54:43.712Z,59104
2018-11-14T11:55:53.424Z,71328
2018-11-14T11:57:02.887Z,81664
2018-11-14T11:58:12.320Z,76512
2018-11-14T11:59:22.178Z,68352
2018-11-14T12:00:33.249Z,49376
2018-11-14T12:01:43.693Z,70592
2018-11-14T12:02:53.381Z,68096
2018-11-14T12:04:02.857Z,59200
2018-11-14T12:05:12.824Z,37920
2018-11-14T12:06:24.187Z,53760
2018-11-14T12:07:34.088Z,71584
2018-11-14T12:08:43.540Z,71648
2018-11-14T12:09:53.258Z,59008
2018-11-14T12:11:03.390Z,47904
2018-11-14T12:12:13.098Z,79552
2018-11-14T12:13:23.073Z,78432
2018-11-14T12:14:33.281Z,73120
2018-11-14T12:15:42.737Z,75168
2018-11-14T12:16:52.741Z,71552
2018-11-14T12:18:02.622Z,65504
2018-11-14T12:19:12.651Z,65600
2018-11-14T12:20:21.926Z,57440
2018-11-14T12:21:31.903Z,66432
2018-11-14T12:22:41.872Z,74560
2018-11-14T12:23:52.208Z,83776
2018-11-14T12:25:02.204Z,80096
2018-11-14T12:26:11.918Z,83392
2018-11-14T12:27:22.129Z,80096
2018-11-14T12:28:32.317Z,39424
2018-11-14T12:29:41.806Z,46784
2018-11-14T12:30:51.672Z,80480
2018-11-14T12:32:00.683Z,72448
2018-11-14T12:33:10.667Z,72864
2018-11-14T12:34:20.636Z,43776
2018-11-14T12:35:30.235Z,45024
2018-11-14T12:36:40.079Z,44320
2018-11-14T12:37:49.783Z,23040
2018-11-14T12:38:59.919Z,52352
2018-11-14T12:40:09.548Z,57120
2018-11-14T12:41:19.319Z,48992
2018-11-14T12:42:29.025Z,50528
2018-11-14T12:43:38.751Z,59648
2018-11-14T12:44:48.438Z,29376
2018-11-14T12:45:57.885Z,22400
2018-11-14T12:47:07.853Z,23616
2018-11-14T12:48:17.832Z,41920
2018-11-14T12:49:27.296Z,48160
2018-11-14T12:50:37.284Z,44576
2018-11-14T12:51:47.007Z,37344
2018-11-14T12:52:56.669Z,45248
2018-11-14T12:54:06.638Z,53120
2018-11-14T12:55:16.347Z,51200
2018-11-14T12:56:26.049Z,53888
2018-11-14T12:57:35.752Z,40256
2018-11-14T12:58:45.732Z,45504
2018-11-14T12:59:55.267Z,43872
2018-11-14T13:01:05.322Z,48864
2018-11-14T13:02:15.294Z,41824
2018-11-14T13:03:24.736Z,45344
2018-11-14T13:04:34.471Z,46912
2018-11-14T13:05:43.924Z,51008
2018-11-14T13:06:53.619Z,29536
2018-11-14T13:08:03.066Z,25248
2018-11-14T13:09:12.768Z,28800
2018-11-14T13:10:22.508Z,30880
2018-11-14T13:11:32.211Z,26816
2018-11-14T13:12:42.380Z,26336
2018-11-14T13:13:52.343Z,38880
2018-11-14T13:15:02.308Z,60800
2018-11-14T13:16:11.998Z,60224
2018-11-14T13:17:21.691Z,62144
2018-11-14T13:18:31.126Z,54560
2018-11-14T13:19:40.636Z,58144
2018-11-14T13:20:50.091Z,67328
2018-11-14T13:21:59.789Z,69632
2018-11-14T13:23:09.239Z,62816
2018-11-14T13:24:19.213Z,67520
2018-11-14T13:25:28.923Z,53344
2018-11-14T13:26:38.894Z,68096
2018-11-14T13:27:48.347Z,64864
2018-11-14T13:28:57.658Z,58592
2018-11-14T13:30:07.123Z,29088
2018-11-14T13:31:16.824Z,47424
2018-11-14T13:32:26.797Z,54752
2018-11-14T13:33:35.729Z,36224
2018-11-14T13:34:45.702Z,28320
2018-11-14T13:35:55.673Z,59776
2018-11-14T13:37:05.417Z,42144
2018-11-14T13:38:15.115Z,25632
2018-11-14T13:39:24.543Z,25664
2018-11-14T13:40:34.254Z,24480
2018-11-14T13:41:44.220Z,35744
2018-11-14T13:42:53.413Z,54016
2018-11-14T13:44:02.855Z,56448
2018-11-14T13:45:12.820Z,36736
2018-11-14T13:46:22.525Z,23040
2018-11-14T13:47:32.234Z,47072
2018-11-14T13:48:42.078Z,49920
2018-11-14T13:49:53.797Z,57984
2018-11-14T13:51:05.444Z,58848
2018-11-14T13:52:14.772Z,54176
2018-11-14T13:53:24.464Z,55968
2018-11-14T13:54:33.953Z,54688
2018-11-14T13:55:42.881Z,41920
2018-11-14T13:56:52.796Z,41504
2018-11-14T13:58:02.753Z,47008
2018-11-14T13:59:12.190Z,41984
2018-11-14T14:00:22.189Z,41600
2018-11-14T14:01:32.088Z,37664
2018-11-14T14:02:42.060Z,31936
2018-11-14T14:03:51.775Z,28704
2018-11-14T14:05:01.504Z,28288
2018-11-14T14:06:10.433Z,23936
2018-11-14T14:07:20.355Z,33792
2018-11-14T14:08:30.075Z,39456
2018-11-14T14:09:40.449Z,40256
2018-11-14T14:10:50.436Z,36928
2018-11-14T14:12:00.423Z,36512
2018-11-14T14:13:10.416Z,37184
2018-11-14T14:14:20.141Z,34464
2018-11-14T14:15:30.170Z,33952
2018-11-14T14:16:40.410Z,31552
2018-11-14T14:17:50.373Z,28672
2018-11-14T14:19:00.344Z,27712
2018-11-14T14:20:10.028Z,25792
2018-11-14T14:21:19.471Z,24704
2018-11-14T14:22:29.477Z,20544
2018-11-14T14:23:39.456Z,18592
2018-11-14T14:24:49.429Z,19040
2018-11-14T14:25:59.115Z,19136
2018-11-14T14:27:09.085Z,18784
2018-11-14T14:28:19.049Z,14848
2018-11-14T14:29:28.489Z,13664
2018-11-14T14:30:38.000Z,12028
2018-11-14T14:31:47.708Z,10940
2018-11-14T14:32:57.187Z,10232
2018-11-14T14:34:07.205Z,10344
2018-11-14T14:35:16.964Z,10044
2018-11-14T14:36:26.951Z,9588
2018-11-14T14:37:36.415Z,8980
2018-11-14T14:38:45.873Z,8256
2018-11-14T14:39:55.834Z,6880
2018-11-14T14:41:05.810Z,5836
2018-11-14T14:42:15.766Z,5272
2018-11-14T14:43:25.313Z,4844
2018-11-14T14:44:34.787Z,4468
2018-11-14T14:45:44.509Z,4116
2018-11-14T14:46:54.205Z,3808
2018-11-14T14:48:03.658Z,3548
2018-11-14T14:49:13.381Z,3296
2018-11-14T14:50:22.860Z,3084
2018-11-14T14:51:32.554Z,2880
2018-11-14T14:52:42.510Z,2688
2018-11-14T14:53:52.240Z,2468
2018-11-14T14:55:01.414Z,2272
2018-11-14T14:56:11.528Z,2112
2018-11-14T14:57:21.312Z,1980
2018-11-14T14:58:30.484Z,1856
2018-11-14T14:59:40.508Z,1728
2018-11-14T15:00:50.470Z,1612
2018-11-14T15:02:00.436Z,1508
2018-11-14T15:03:10.426Z,1400
2018-11-14T15:04:20.454Z,1308
2018-11-14T15:05:29.915Z,1232
2018-11-14T15:06:39.609Z,1160
2018-11-14T15:07:49.583Z,1096
2018-11-14T15:08:59.546Z,1028
2018-11-14T15:10:09.002Z,952
2018-11-14T15:11:18.963Z,876
2018-11-14T15:12:28.403Z,800
2018-11-14T15:13:38.090Z,736
2018-11-14T15:14:48.044Z,672
2018-11-14T15:15:57.497Z,612
2018-11-14T15:17:07.449Z,560
2018-11-14T15:18:17.154Z,508
2018-11-14T15:19:27.140Z,460
2018-11-14T15:20:36.852Z,412
2018-11-14T15:21:46.289Z,372
2018-11-14T15:22:56.471Z,332
2018-11-14T15:24:06.182Z,296
2018-11-14T15:25:15.868Z,264
2018-11-14T15:26:25.554Z,232
2018-11-14T15:27:35.254Z,200
2018-11-14T15:28:45.256Z,176
2018-11-14T15:29:55.511Z,152
2018-11-14T15:31:05.481Z,132
2018-11-14T15:32:15.434Z,112
2018-11-14T15:33:25.445Z,92
2018-11-14T15:34:35.406Z,80
2018-11-14T15:35:45.127Z,68
2018-11-14T15:36:54.305Z,56
2018-11-14T15:38:04.261Z,44
2018-11-14T15:39:14.225Z,40
2018-11-14T15:40:24.178Z,32
2018-11-14T15:41:33.881Z,28
2018-11-14T15:42:44.151Z,24
2018-11-14T15:43:54.011Z,16
2018-11-14T15:45:03.966Z,16
2018-11-14T15:46:13.443Z,12
2018-11-14T15:47:23.147Z,12
2018-11-14T15:48:32.605Z,8
2018-11-14T15:49:42.308Z,4
2018-11-14T15:50:52.013Z,4
2018-11-14T15:52:01.982Z,4
2018-11-14T15:53:11.694Z,4
2018-11-14T15:54:21.139Z,4
2018-11-14T15:55:30.857Z,0